Time;durP1;ratioP1;P1;durP2;ratioP2;P2;SDS_P1;SDS_P2;PMS_P1;PMS_P2;Temp;Humidity;BMP_temperature;BMP_pressure;BME280_temperature;BME280_humidity;BME280_pressure;Samples;Min_cycle;Max_cycle;Signal;HPM_P1;HPM_P2
2022/09/20 00:01:14;;;;;;;8.23;4.47;;;;;;;11.05;100.00;102098.81;5032195;28;20030;-68
2022/09/20 00:03:41;;;;;;;;;;;;;;;11.12;100.00;102098.84;5034203;28;20477;-68
2022/09/20 00:06:09;;;;;;;12.05;5.35;;;;;;;11.01;100.00;102096.69;5033831;28;20234;-67
2022/09/20 00:08:35;;;;;;;12.65;5.13;;;;;;;11.01;100.00;102089.38;5033409;28;20025;-67
2022/09/20 00:11:05;;;;;;;13.07;5.63;;;;;;;10.97;100.00;102090.81;5032743;28;20399;-69
2022/09/20 00:13:32;;;;;;;9.70;5.28;;;;;;;10.97;100.00;102096.22;5033829;28;20337;-69
2022/09/20 00:15:58;;;;;;;12.07;5.28;;;;;;;10.99;100.00;102099.56;5033874;28;20036;-68
2022/09/20 00:18:24;;;;;;;10.35;5.18;;;;;;;11.00;100.00;102095.81;5033914;28;20025;-68
2022/09/20 00:20:50;;;;;;;12.65;5.10;;;;;;;10.99;100.00;102092.28;5033925;28;20029;-69
2022/09/20 00:23:16;;;;;;;10.57;5.32;;;;;;;10.98;100.00;102081.66;5033568;28;20349;-68
2022/09/20 00:25:42;;;;;;;10.02;5.30;;;;;;;11.00;100.00;102082.28;5032299;28;20036;-67
2022/09/20 00:28:09;;;;;;;10.35;5.10;;;;;;;10.97;100.00;102085.38;5033729;28;20029;-69
2022/09/20 00:30:35;;;;;;;12.68;5.63;;;;;;;10.99;100.00;102089.59;5032545;28;20073;-69
2022/09/20 00:33:00;;;;;;;11.05;4.85;;;;;;;10.99;100.00;102088.72;5033313;28;20106;-68
2022/09/20 00:35:28;;;;;;;11.52;5.93;;;;;;;11.02;100.00;102082.94;5033586;28;20041;-67
2022/09/20 00:37:53;;;;;;;9.00;4.70;;;;;;;10.99;100.00;102086.00;5033511;28;20030;-68
2022/09/20 00:40:21;;;;;;;11.93;5.35;;;;;;;11.00;100.00;102090.41;5033512;28;20047;-69
2022/09/20 00:42:48;;;;;;;12.52;5.43;;;;;;;10.96;100.00;102097.25;5032052;28;20530;-67
2022/09/20 00:45:21;;;;;;;10.50;4.80;;;;;;;10.96;100.00;102095.41;5032558;28;20029;-70
2022/09/20 00:48:03;;;;;;;7.40;4.30;;;;;;;10.96;100.00;102099.94;5033063;28;20025;-69
2022/09/20 00:50:42;;;;;;;9.77;5.30;;;;;;;10.95;100.00;102092.88;5024303;28;20032;-69
2022/09/20 00:53:11;;;;;;;12.38;4.82;;;;;;;10.91;100.00;102097.00;5032354;28;20022;-69
2022/09/20 00:55:42;;;;;;;10.40;4.85;;;;;;;10.92;100.00;102094.09;5048247;28;20392;-69
2022/09/20 00:58:08;;;;;;;7.65;4.57;;;;;;;10.89;100.00;102088.25;5033216;28;20025;-68
2022/09/20 01:00:34;;;;;;;14.48;4.82;;;;;;;10.87;100.00;102096.56;5029688;28;20106;-69
2022/09/20 01:03:04;;;;;;;9.23;4.53;;;;;;;10.84;100.00;102096.97;5033233;28;20048;-69
2022/09/20 01:05:29;;;;;;;9.07;4.60;;;;;;;10.79;100.00;102086.72;5032583;28;20038;-69
2022/09/20 01:07:55;;;;;;;13.07;4.82;;;;;;;10.81;100.00;102090.06;5032113;28;20025;-69
2022/09/20 01:10:21;;;;;;;14.95;5.18;;;;;;;10.82;100.00;102089.03;5032020;28;20029;-69
2022/09/20 01:12:49;;;;;;;12.32;4.63;;;;;;;10.82;100.00;102083.63;5015324;28;20034;-69
2022/09/20 01:15:14;;;;;;;9.43;4.72;;;;;;;10.82;100.00;102083.63;5013225;28;20029;-69
2022/09/20 01:17:46;;;;;;;8.05;5.00;;;;;;;10.80;100.00;102085.69;5011522;28;20361;-69
2022/09/20 01:20:31;;;;;;;7.03;4.43;;;;;;;10.77;100.00;102083.38;5013747;28;20033;-69
2022/09/20 01:23:34;;;;;;;10.73;4.65;;;;;;;10.84;100.00;102090.69;5032875;28;20021;-68
2022/09/20 01:26:22;;;;;;;12.10;4.60;;;;;;;10.84;100.00;102088.84;5032697;28;20032;-69
2022/09/20 01:28:52;;;;;;;11.80;4.30;;;;;;;10.79;100.00;102084.03;5032555;28;20025;-69
2022/09/20 01:31:24;;;;;;;11.35;4.53;;;;;;;10.82;100.00;102080.91;5031054;28;20025;-69
2022/09/20 01:33:57;;;;;;;10.10;4.80;;;;;;;10.86;100.00;102084.06;5032437;28;20037;-69
2022/09/20 01:36:47;;;;;;;13.75;4.60;;;;;;;10.90;100.00;102087.19;5032487;28;20067;-69
2022/09/20 01:39:40;;;;;;;11.02;4.28;;;;;;;10.88;100.00;102092.00;5030361;28;20202;-69
2022/09/20 01:42:11;;;;;;;13.07;4.60;;;;;;;10.84;100.00;102091.56;5032411;28;20025;-69
2022/09/20 01:44:36;;;;;;;10.48;4.72;;;;;;;10.84;100.00;102094.25;5032292;28;20064;-69
2022/09/20 01:47:24;;;;;;;11.13;4.33;;;;;;;10.84;100.00;102093.41;5032478;28;20465;-69
2022/09/20 01:50:11;;;;;;;8.10;4.25;;;;;;;10.85;100.00;102086.97;5018960;28;20315;-69
2022/09/20 01:52:57;;;;;;;12.10;4.30;;;;;;;10.86;100.00;102088.66;5032373;28;20048;-69
2022/09/20 01:55:49;;;;;;;7.70;4.22;;;;;;;10.82;100.00;102093.59;5032218;28;20412;-68
2022/09/20 01:58:32;;;;;;;12.35;4.50;;;;;;;10.82;100.00;102093.59;5032533;28;20058;-69
2022/09/20 02:01:36;;;;;;;11.20;4.20;;;;;;;10.87;100.00;102090.31;5020337;28;20500;-69
2022/09/20 02:04:32;;;;;;;8.23;4.25;;;;;;;10.81;100.00;102089.25;4995773;28;20052;-67
2022/09/20 02:07:24;;;;;;;10.07;4.38;;;;;;;10.77;100.00;102080.66;5015375;28;20511;-67
2022/09/20 02:10:11;;;;;;;13.70;4.38;;;;;;;10.76;100.00;102088.97;5029076;28;20368;-69
2022/09/20 02:12:54;;;;;;;10.18;4.60;;;;;;;10.77;100.00;102090.66;5032263;28;20033;-69
2022/09/20 02:15:37;;;;;;;13.43;5.07;;;;;;;10.77;100.00;102088.78;5032512;28;20379;-68
2022/09/20 02:18:32;;;;;;;13.80;5.10;;;;;;;10.81;100.00;102087.38;5030869;28;20167;-68
2022/09/20 02:21:17;;;;;;;9.80;4.25;;;;;;;10.80;100.00;102093.81;5032361;28;20034;-69
2022/09/20 02:24:07;;;;;;;8.27;3.70;;;;;;;10.84;100.00;102090.69;5047420;28;20083;-69
2022/09/20 02:26:47;;;;;;;14.63;4.28;;;;;;;10.85;100.00;102095.91;5030166;28;20029;-68
2022/09/20 02:29:34;;;;;;;9.40;3.97;;;;;;;10.91;100.00;102099.72;5032267;28;20036;-68
2022/09/20 02:32:23;;;;;;;11.70;4.15;;;;;;;10.91;100.00;102091.59;5033224;28;20065;-68
2022/09/20 02:35:04;;;;;;;10.80;4.40;;;;;;;10.91;100.00;102088.88;5035739;28;20017;-68
2022/09/20 02:37:41;;;;;;;9.23;3.90;;;;;;;10.96;100.00;102083.69;5035149;28;20372;-69
2022/09/20 02:40:23;;;;;;;8.48;3.97;;;;;;;10.96;100.00;102089.13;5035850;28;20026;-69
2022/09/20 02:43:17;;;;;;;13.52;4.40;;;;;;;10.97;100.00;102088.09;5035552;28;20034;-68
2022/09/20 02:46:07;;;;;;;7.68;4.10;;;;;;;10.96;100.00;102086.41;5035468;28;20025;-68
2022/09/20 02:49:01;;;;;;;10.90;4.20;;;;;;;10.89;100.00;102089.09;5034478;28;20368;-69
2022/09/20 02:51:47;;;;;;;10.38;4.28;;;;;;;10.92;100.00;102096.00;5035771;28;20037;-69
2022/09/20 02:54:36;;;;;;;11.35;4.25;;;;;;;10.86;100.00;102089.47;5035512;28;20025;-69
2022/09/20 02:57:17;;;;;;;14.10;4.82;;;;;;;10.87;100.00;102091.16;5034110;28;20043;-69
2022/09/20 02:59:54;;;;;;;8.30;4.32;;;;;;;10.87;100.00;102087.59;5035213;28;20041;-69
2022/09/20 03:02:25;;;;;;;12.25;4.60;;;;;;;10.86;100.00;102078.66;5033067;28;20021;-68
2022/09/20 03:05:06;;;;;;;9.98;4.13;;;;;;;10.85;100.00;102082.38;5016281;28;20069;-69
2022/09/20 03:07:43;;;;;;;10.70;4.65;;;;;;;10.82;100.00;102080.06;5015429;28;20022;-70
2022/09/20 03:10:33;;;;;;;10.73;4.70;;;;;;;10.82;100.00;102072.81;5015522;28;20057;-69
2022/09/20 03:13:10;;;;;;;14.55;4.88;;;;;;;10.86;100.00;102083.22;5017229;28;20091;-68
2022/09/20 03:15:51;;;;;;;10.18;4.88;;;;;;;10.87;100.00;102074.06;5034266;28;20044;-68
2022/09/20 03:18:32;;;;;;;8.98;4.78;;;;;;;10.88;100.00;102086.56;5033863;28;20033;-69
2022/09/20 03:21:16;;;;;;;10.20;4.57;;;;;;;10.92;100.00;102085.16;5034889;28;20025;-68
2022/09/20 03:24:04;;;;;;;13.52;4.82;;;;;;;10.93;100.00;102086.81;5032491;28;20034;-68
2022/09/20 03:26:41;;;;;;;12.55;5.20;;;;;;;10.92;100.00;102087.88;5034872;28;20144;-69
2022/09/20 03:29:39;;;;;;;9.25;4.65;;;;;;;10.95;100.00;102085.59;5034962;28;20032;-69
2022/09/20 03:32:43;;;;;;;13.88;5.22;;;;;;;10.95;100.00;102087.47;5017172;28;20044;-69
2022/09/20 03:35:42;;;;;;;19.33;5.00;;;;;;;10.97;100.00;102093.50;5000408;28;20070;-69
2022/09/20 03:38:28;;;;;;;9.43;4.80;;;;;;;10.96;100.00;102084.56;5014887;28;20101;-68
2022/09/20 03:41:03;;;;;;;10.55;4.80;;;;;;;10.97;100.00;102085.38;5014730;28;20112;-69
2022/09/20 03:43:37;;;;;;;14.93;5.15;;;;;;;10.96;100.00;102089.13;5019538;28;20083;-68
2022/09/20 03:46:20;;;;;;;13.13;6.15;;;;;;;10.96;100.00;102089.13;5033960;28;20025;-69
2022/09/20 03:49:07;;;;;;;15.90;5.82;;;;;;;10.94;100.00;102094.72;5034318;28;20029;-69
2022/09/20 03:51:56;;;;;;;13.48;5.65;;;;;;;10.94;100.00;102097.44;5034483;28;20087;-69
2022/09/20 03:55:01;;;;;;;11.77;5.80;;;;;;;10.97;100.00;102088.09;5033813;28;20029;-69
2022/09/20 03:57:36;;;;;;;14.18;5.65;;;;;;;10.97;100.00;102088.09;5034395;28;20036;-69
2022/09/20 04:00:15;;;;;;;13.98;6.05;;;;;;;10.95;100.00;102088.28;5034118;28;20021;-69
2022/09/20 04:02:49;;;;;;;14.35;5.65;;;;;;;11.00;100.00;102090.41;5031744;28;20029;-69
2022/09/20 04:05:21;;;;;;;14.10;6.38;;;;;;;10.93;100.00;102086.81;5032715;28;20042;-69
2022/09/20 04:07:49;;;;;;;15.68;6.10;;;;;;;10.91;100.00;102089.72;5032743;28;20053;-69
2022/09/20 04:10:28;;;;;;;11.77;5.57;;;;;;;10.91;100.00;102088.88;5033811;28;20032;-69
2022/09/20 04:13:12;;;;;;;14.02;6.25;;;;;;;10.91;100.00;102092.41;5032968;28;20032;-69
2022/09/20 04:15:53;;;;;;;15.50;6.53;;;;;;;10.87;100.00;102079.47;5014261;28;20014;-69
2022/09/20 04:18:31;;;;;;;12.02;5.53;;;;;;;10.84;100.00;102058.19;5014264;28;20060;-69
2022/09/20 04:21:10;;;;;;;14.85;5.95;;;;;;;10.86;100.00;102067.00;5013727;28;20032;-69
2022/09/20 04:23:55;;;;;;;13.50;5.80;;;;;;;10.89;100.00;102074.72;5020337;28;20025;-69
2022/09/20 04:26:33;;;;;;;11.82;5.53;;;;;;;10.91;100.00;102078.06;5032961;28;20037;-68
2022/09/20 04:29:04;;;;;;;12.68;5.70;;;;;;;10.92;100.00;102079.75;5033547;28;20095;-68
2022/09/20 04:31:40;;;;;;;13.82;5.63;;;;;;;10.92;100.00;102079.75;5033719;28;20065;-69
2022/09/20 04:34:16;;;;;;;10.25;5.35;;;;;;;10.91;100.00;102075.34;5032552;28;20032;-69
2022/09/20 04:37:03;;;;;;;11.00;5.15;;;;;;;10.93;100.00;102073.25;5028829;28;20039;-69
2022/09/20 04:40:14;;;;;;;13.07;5.57;;;;;;;10.93;100.00;102071.41;5015995;28;20112;-69
2022/09/20 04:43:16;;;;;;;8.40;4.80;;;;;;;10.91;100.00;102072.63;5006470;28;20042;-69
2022/09/20 04:46:00;;;;;;;10.73;5.72;;;;;;;10.92;100.00;102071.63;5020990;28;20021;-69
2022/09/20 04:49:07;;;;;;;9.77;5.50;;;;;;;10.91;100.00;102078.06;5013253;28;20373;-69
2022/09/20 04:51:32;;;;;;;13.77;5.97;;;;;;;10.92;100.00;102082.44;5011950;28;20461;-68
2022/09/20 04:54:30;;;;;;;9.93;5.90;;;;;;;10.93;100.00;102089.50;5013145;28;20093;-68
2022/09/20 04:57:14;;;;;;;14.52;6.07;;;;;;;10.92;100.00;102087.88;5024203;28;20060;-69
2022/09/20 04:59:57;;;;;;;10.55;5.75;;;;;;;10.91;100.00;102097.00;5032940;28;20032;-69
2022/09/20 05:02:41;;;;;;;12.48;5.32;;;;;;;10.93;100.00;102100.34;5029488;28;20036;-69
2022/09/20 05:05:37;;;;;;;11.88;5.13;;;;;;;10.94;100.00;102093.91;5032021;28;20037;-68
2022/09/20 05:08:27;;;;;;;10.18;5.65;;;;;;;10.94;100.00;102086.59;5012010;28;20060;-68
2022/09/20 05:11:20;;;;;;;9.20;4.85;;;;;;;10.93;100.00;102093.09;5013125;28;20084;-69
2022/09/20 05:14:24;;;;;;;9.10;5.05;;;;;;;10.92;100.00;102098.69;5012761;28;20461;-69
2022/09/20 05:17:13;;;;;;;9.57;5.38;;;;;;;10.87;100.00;102096.56;5023047;28;20025;-68
2022/09/20 05:20:06;;;;;;;9.82;4.75;;;;;;;10.92;100.00;102101.41;5031621;28;20392;-69
2022/09/20 05:22:49;;;;;;;9.05;4.88;;;;;;;10.90;100.00;102106.16;5032540;28;20030;-69
2022/09/20 05:25:32;;;;;;;17.45;6.07;;;;;;;10.90;100.00;102103.44;5048188;28;20090;-68
2022/09/20 05:28:02;;;;;;;10.35;5.35;;;;;;;10.91;100.00;102108.66;5027995;28;20025;-69
2022/09/20 05:30:36;;;;;;;7.97;4.80;;;;;;;10.89;100.00;102109.91;5012995;28;20025;-69
2022/09/20 05:33:23;;;;;;;9.40;4.65;;;;;;;10.90;100.00;102111.56;5011391;28;20419;-68
2022/09/20 05:36:02;;;;;;;10.73;5.40;;;;;;;10.82;100.00;102110.72;5012722;28;20026;-68
2022/09/20 05:38:48;;;;;;;8.15;4.70;;;;;;;10.83;100.00;102125.06;5018769;28;20075;-69
2022/09/20 05:41:30;;;;;;;8.13;4.75;;;;;;;10.81;100.00;102127.97;5032521;28;20087;-69
2022/09/20 05:44:07;;;;;;;13.95;5.28;;;;;;;10.81;100.00;102125.28;5032125;28;20373;-68
2022/09/20 05:46:57;;;;;;;13.25;5.20;;;;;;;10.83;100.00;102130.50;5047784;28;20043;-69
2022/09/20 05:49:40;;;;;;;11.68;5.13;;;;;;;10.85;100.00;102120.28;5041120;28;20033;-69
2022/09/20 05:52:30;;;;;;;9.80;5.03;;;;;;;10.87;100.00;102126.38;5032315;28;20029;-69
2022/09/20 05:55:23;;;;;;;11.10;5.00;;;;;;;10.88;100.00;102124.47;5032309;28;20021;-69
2022/09/20 05:58:10;;;;;;;9.98;5.00;;;;;;;10.89;100.00;102135.13;5031405;28;20464;-70
2022/09/20 06:00:45;;;;;;;14.32;4.95;;;;;;;10.90;100.00;102135.94;5010408;28;20029;-70
2022/09/20 06:03:24;;;;;;;9.85;5.10;;;;;;;10.89;100.00;102139.72;5012579;28;20072;-69
2022/09/20 06:06:08;;;;;;;11.52;4.65;;;;;;;10.92;100.00;102147.44;5012588;28;20026;-70
2022/09/20 06:08:39;;;;;;;8.77;5.00;;;;;;;10.91;100.00;102148.47;5021359;28;20045;-68
2022/09/20 06:11:21;;;;;;;9.30;5.03;;;;;;;10.93;100.00;102151.81;5030900;28;20057;-69
2022/09/20 06:14:08;;;;;;;8.70;5.05;;;;;;;10.91;100.00;102156.59;5036125;28;20025;-69
2022/09/20 06:16:47;;;;;;;11.45;5.30;;;;;;;10.92;100.00;102156.41;5046151;28;20096;-71
2022/09/20 06:19:24;;;;;;;9.23;5.25;;;;;;;10.93;100.00;102157.22;5034938;28;20029;-71
2022/09/20 06:21:55;;;;;;;7.60;5.45;;;;;;;10.94;100.00;102156.19;5036036;28;20040;-72
2022/09/20 06:24:42;;;;;;;8.60;4.93;;;;;;;10.96;100.00;102159.53;5030014;28;20092;-69
2022/09/20 06:27:14;;;;;;;15.07;6.00;;;;;;;10.92;100.00;102153.69;5015946;28;20030;-70
2022/09/20 06:29:47;;;;;;;15.68;5.57;;;;;;;10.95;100.00;102157.88;5016180;28;20032;-70
2022/09/20 06:32:17;;;;;;;10.27;5.30;;;;;;;10.94;100.00;102156.19;5014579;28;20026;-69
2022/09/20 06:34:42;;;;;;;11.63;5.43;;;;;;;10.94;100.00;102157.03;5019872;28;20087;-70
2022/09/20 06:43:18;;;;;;;13.45;5.80;;;;;;;10.98;100.00;102160.19;5015749;28;20032;-68
2022/09/20 06:45:44;;;;;;;13.10;5.60;;;;;;;11.02;100.00;102164.19;5019526;28;20029;-68
2022/09/20 06:48:12;;;;;;;8.80;5.65;;;;;;;11.00;100.00;102158.13;5029171;28;20430;-68
2022/09/20 06:50:38;;;;;;;10.35;5.05;;;;;;;10.97;100.00;102159.34;5035197;28;20025;-70
2022/09/20 06:53:04;;;;;;;13.27;6.00;;;;;;;10.99;100.00;102160.00;5034923;28;20025;-68
2022/09/20 06:55:41;;;;;;;11.27;5.82;;;;;;;11.04;100.00;102162.13;5033708;28;20112;-66
2022/09/20 06:58:08;;;;;;;15.30;6.03;;;;;;;11.05;100.00;102163.81;5033014;28;20366;-66
2022/09/20 07:00:34;;;;;;;11.30;5.68;;;;;;;11.08;100.00;102163.41;5032772;28;20065;-69
2022/09/20 07:02:59;;;;;;;11.93;6.05;;;;;;;11.11;100.00;102163.03;5033861;28;20516;-67
2022/09/20 07:05:25;;;;;;;9.93;6.07;;;;;;;11.11;100.00;102165.72;5027921;28;20342;-67
2022/09/20 07:07:56;;;;;;;11.88;6.10;;;;;;;11.12;100.00;102163.84;5034306;28;20032;-68
2022/09/20 07:10:21;;;;;;;16.27;6.38;;;;;;;11.14;100.00;102168.03;5035265;28;20029;-67
2022/09/20 07:12:47;;;;;;;14.30;5.88;;;;;;;11.15;100.00;102163.47;5035237;28;20034;-69
2022/09/20 07:15:14;;;;;;;10.38;5.70;;;;;;;11.25;100.00;102171.25;5033008;28;20084;-68
2022/09/20 07:17:43;;;;;;;10.05;5.38;;;;;;;11.27;100.00;102174.59;5034612;28;20060;-70
2022/09/20 07:20:08;;;;;;;11.40;5.90;;;;;;;11.29;100.00;102165.25;5031248;28;20145;-67
2022/09/20 07:22:34;;;;;;;11.50;6.03;;;;;;;11.31;100.00;102162.34;5033728;28;20029;-68
2022/09/20 07:25:01;;;;;;;10.43;5.80;;;;;;;11.34;100.00;102161.94;5034334;28;20025;-67
2022/09/20 07:27:26;;;;;;;9.48;5.22;;;;;;;11.36;100.00;102165.28;5034792;28;20029;-68
2022/09/20 07:29:52;;;;;;;12.07;6.30;;;;;;;11.39;100.00;102159.47;5034485;28;20350;-68
2022/09/20 07:32:17;;;;;;;10.90;5.35;;;;;;;11.43;100.00;102166.16;5034792;28;20029;-67
2022/09/20 07:34:42;;;;;;;15.48;5.75;;;;;;;11.46;100.00;102165.75;5034709;28;20026;-67
2022/09/20 07:37:08;;;;;;;7.78;5.10;;;;;;;11.45;100.00;102161.38;5034462;28;20421;-68
2022/09/20 07:39:33;;;;;;;11.88;5.45;;;;;;;11.57;100.00;102160.84;5032776;28;20025;-68
2022/09/20 07:42:00;;;;;;;12.63;5.38;;;;;;;11.64;100.00;102167.09;5029993;28;20048;-70
2022/09/20 07:44:26;;;;;;;9.32;4.60;;;;;;;11.69;100.00;102167.38;5033749;28;20368;-68
2022/09/20 07:46:57;;;;;;;9.38;4.45;;;;;;;11.74;100.00;102177.59;5034470;28;20033;-67
2022/09/20 07:49:24;;;;;;;8.00;4.88;;;;;;;11.79;100.00;102181.41;5032900;28;20071;-68
2022/09/20 07:51:49;;;;;;;7.22;3.80;;;;;;;11.78;100.00;102179.72;5033504;28;20120;-68
2022/09/20 07:54:16;;;;;;;9.43;4.70;;;;;;;11.78;100.00;102185.16;5034203;28;20101;-68
2022/09/20 07:56:42;;;;;;;10.88;4.70;;;;;;;11.85;100.00;102186.03;5034590;28;20033;-68
2022/09/20 07:59:09;;;;;;;10.32;4.28;;;;;;;11.84;100.00;102189.75;5033740;28;20539;-68
2022/09/20 08:01:34;;;;;;;9.98;4.32;;;;;;;11.83;100.00;102185.38;5025923;28;20036;-68
2022/09/20 08:04:00;;;;;;;8.30;4.43;;;;;;;11.87;100.00;102192.06;5033892;28;20128;-67
2022/09/20 08:06:25;;;;;;;8.98;4.03;;;;;;;11.90;100.00;102198.97;5034243;28;20029;-67
2022/09/20 08:08:51;;;;;;;10.20;4.88;;;;;;;11.91;100.00;102199.81;5033908;28;20029;-67
2022/09/20 08:11:19;;;;;;;9.30;4.50;;;;;;;11.92;100.00;102202.31;5032462;28;20075;-67
2022/09/20 08:13:49;;;;;;;11.38;4.55;;;;;;;11.98;100.00;102193.41;5034092;28;20029;-67
2022/09/20 08:16:15;;;;;;;8.57;4.60;;;;;;;12.09;100.00;102197.41;5033922;28;20041;-68
2022/09/20 08:18:49;;;;;;;11.30;4.78;;;;;;;12.19;100.00;102192.44;5033899;28;20064;-67
2022/09/20 08:21:14;;;;;;;13.57;4.90;;;;;;;12.23;100.00;102199.16;5033078;28;20021;-68
2022/09/20 08:23:42;;;;;;;8.07;4.30;;;;;;;12.31;100.00;102200.03;5025621;28;20025;-68
2022/09/20 08:26:13;;;;;;;11.77;4.50;;;;;;;12.37;100.00;102199.22;5033442;28;20025;-68
2022/09/20 08:28:40;;;;;;;9.23;3.90;;;;;;;12.41;100.00;102205.91;5033654;28;20048;-68
2022/09/20 08:31:08;;;;;;;9.60;3.83;;;;;;;12.41;100.00;102201.31;5031616;28;20026;-68
2022/09/20 08:33:37;;;;;;;12.63;3.80;;;;;;;12.41;100.00;102197.75;5042200;28;20021;-69
2022/09/20 08:36:04;;;;;;;7.10;3.70;;;;;;;12.46;100.00;102206.13;5039378;28;20040;-70
2022/09/20 08:38:30;;;;;;;6.80;4.13;;;;;;;12.55;100.00;102201.34;5044908;28;20430;-69
2022/09/20 08:41:00;;;;;;;11.52;4.60;;;;;;;12.64;100.00;102210.16;5029867;28;20113;-70
2022/09/20 08:43:31;;;;;;;10.10;4.05;;;;;;;12.75;100.00;102202.22;5031914;28;20112;-70
2022/09/20 08:45:59;;;;;;;8.10;2.95;;;;;;;12.83;100.00;102209.34;5033253;28;20104;-70
2022/09/20 08:48:32;;;;;;;8.55;2.42;;;;;;;12.81;100.00;102207.88;5032814;28;20021;-70
2022/09/20 08:51:00;;;;;;;9.77;2.22;;;;;;;12.81;100.00;102213.31;5032885;28;20056;-70
2022/09/20 08:53:27;;;;;;;9.43;2.70;;;;;;;12.90;100.00;102214.78;5032932;28;20420;-68
2022/09/20 08:55:53;;;;;;;7.32;2.17;;;;;;;12.96;100.00;102224.00;5030752;28;20036;-68
2022/09/20 08:58:18;;;;;;;10.25;2.25;;;;;;;13.04;100.00;102224.59;5028492;28;20052;-70
2022/09/20 09:00:45;;;;;;;10.68;1.90;;;;;;;13.17;100.00;102221.06;5030748;28;20634;-68
2022/09/20 09:03:15;;;;;;;12.45;2.30;;;;;;;13.28;100.00;102222.31;5030928;28;20022;-70
2022/09/20 09:05:45;;;;;;;5.15;2.03;;;;;;;13.33;100.00;102218.97;5032184;28;20072;-71
2022/09/20 09:08:15;;;;;;;7.20;1.90;;;;;;;13.35;100.00;102222.38;5032684;28;20041;-70
2022/09/20 09:10:45;;;;;;;10.80;1.73;;;;;;;13.38;92.92;102216.50;5031805;28;20029;-75
2022/09/20 09:13:19;;;;;;;7.32;1.80;;;;;;;13.35;87.65;102216.94;5032749;28;20064;-72
2022/09/20 09:15:51;;;;;;;10.45;1.58;;;;;;;13.38;100.00;102214.63;5039946;28;20624;-72
2022/09/20 09:18:17;;;;;;;10.45;1.73;;;;;;;13.44;97.23;102215.66;5033346;28;20503;-71
2022/09/20 09:20:45;;;;;;;8.05;1.45;;;;;;;13.56;89.70;102215.88;5032558;28;20025;-69
2022/09/20 09:23:24;;;;;;;8.80;2.10;;;;;;;13.67;86.72;102226.09;5031595;28;20044;-69
2022/09/20 09:25:51;;;;;;;7.95;1.90;;;;;;;13.71;84.12;102212.88;5032502;28;20055;-67
2022/09/20 09:28:22;;;;;;;9.70;1.85;;;;;;;13.82;82.10;102217.69;5032403;28;20029;-70
2022/09/20 09:30:47;;;;;;;8.73;1.77;;;;;;;13.82;73.55;102210.34;5019982;28;20026;-69
2022/09/20 09:35:28;;;;;;;6.15;2.03;;;;;;;13.94;82.18;102221.41;5109995;27;20651;-70
2022/09/20 09:37:59;;;;;;;10.40;1.52;;;;;;;13.91;75.66;102208.22;5110485;28;20039;-71
2022/09/20 09:40:26;;;;;;;8.43;1.35;;;;;;;13.92;76.61;102212.63;5101373;28;20020;-70
2022/09/20 09:42:57;;;;;;;9.77;2.17;;;;;;;13.94;81.78;102213.25;5101137;28;20024;-70
2022/09/20 09:45:37;;;;;;;10.65;2.00;;;;;;;13.96;81.80;102222.03;5095098;28;20217;-70
2022/09/20 09:48:18;;;;;;;7.10;1.77;;;;;;;13.97;83.71;102220.97;5110103;28;20580;-72
2022/09/20 09:50:43;;;;;;;7.88;1.60;;;;;;;13.92;81.81;102218.06;5108816;28;20080;-70
2022/09/20 09:53:12;;;;;;;8.00;1.60;;;;;;;13.89;79.62;102223.94;5109702;28;20366;-73
2022/09/20 09:55:59;;;;;;;7.07;1.52;;;;;;;13.88;82.17;102216.00;5110158;28;20023;-70
2022/09/20 09:58:45;;;;;;;9.85;1.90;;;;;;;13.83;82.39;102228.34;5103845;28;20581;-70
2022/09/20 10:01:25;;;;;;;8.70;1.75;;;;;;;13.80;87.01;102226.06;5094011;28;20028;-71
2022/09/20 10:04:00;;;;;;;4.63;1.60;;;;;;;13.78;78.25;102232.75;5109730;28;20370;-69
2022/09/20 10:06:35;;;;;;;6.35;1.50;;;;;;;13.73;74.58;102232.56;5106463;28;20069;-69
2022/09/20 10:09:06;;;;;;;6.57;1.25;;;;;;;13.68;82.17;102229.63;5108099;28;20020;-69
2022/09/20 10:11:57;;;;;;;8.65;1.73;;;;;;;13.64;86.04;102227.34;5109826;28;20024;-69
2022/09/20 10:14:34;;;;;;;11.30;1.35;;;;;;;13.59;95.08;102235.31;5099320;28;20028;-69
2022/09/20 10:17:23;;;;;;;10.18;1.83;;;;;;;13.61;89.04;102233.19;5108245;28;20028;-69
2022/09/20 10:20:08;;;;;;;7.28;1.63;;;;;;;13.58;91.31;102233.63;5106351;28;20036;-69
2022/09/20 10:23:08;;;;;;;7.68;1.30;;;;;;;13.54;97.47;102235.13;5089646;28;20032;-70
2022/09/20 10:25:50;;;;;;;5.40;1.35;;;;;;;13.49;100.00;102229.44;5088689;28;20067;-70
2022/09/20 10:28:34;;;;;;;4.57;1.35;;;;;;;13.45;100.00;102233.63;5089053;28;20024;-71
2022/09/20 10:31:39;;;;;;;6.57;1.42;;;;;;;13.46;100.00;102224.44;5088945;28;20031;-72
2022/09/20 10:34:26;;;;;;;8.73;1.52;;;;;;;13.46;100.00;102229.88;5088711;28;20048;-73
2022/09/20 10:36:56;;;;;;;7.65;1.55;;;;;;;13.45;100.00;102233.63;5089011;28;20077;-73
2022/09/20 10:39:30;;;;;;;8.23;1.70;;;;;;;13.49;100.00;102224.00;5092534;28;20035;-75
2022/09/20 10:45:35;;;;;;;6.88;1.30;;;;;;;13.60;100.00;102226.09;5093846;28;20370;-69
2022/09/20 10:48:21;;;;;;;6.80;1.25;;;;;;;13.63;93.70;102224.81;5094027;28;20044;-69
2022/09/20 10:51:05;;;;;;;6.20;1.70;;;;;;;13.73;95.09;102229.84;5094393;28;20028;-69
2022/09/20 10:54:06;;;;;;;8.32;1.58;;;;;;;13.76;99.94;102229.41;5093654;28;20081;-69
2022/09/20 10:56:36;;;;;;;9.43;1.90;;;;;;;13.74;93.63;102232.34;5083206;28;20043;-69
2022/09/20 10:59:47;;;;;;;8.35;1.88;;;;;;;13.81;96.67;102233.19;5092658;28;20124;-68
2022/09/20 11:02:28;;;;;;;6.32;1.60;;;;;;;13.77;91.10;102233.81;5083784;28;20047;-69
2022/09/20 11:05:14;;;;;;;7.32;1.38;;;;;;;13.79;94.90;102234.44;5092511;28;20101;-69
2022/09/20 11:08:07;;;;;;;5.75;1.50;;;;;;;13.78;95.62;102239.06;5093901;28;20028;-68
2022/09/20 11:10:41;;;;;;;5.32;1.52;;;;;;;13.75;95.29;102235.91;5095043;28;20015;-69
2022/09/20 11:13:17;;;;;;;5.20;1.35;;;;;;;13.86;94.68;102231.69;5089439;28;20020;-69
2022/09/20 11:16:05;;;;;;;7.20;1.80;;;;;;;14.03;99.21;102230.19;5095133;28;20028;-69
2022/09/20 11:18:57;;;;;;;8.30;2.15;;;;;;;14.24;98.03;102239.94;5090634;28;20039;-69
2022/09/20 11:21:33;;;;;;;6.80;1.40;;;;;;;14.45;85.05;102230.66;5092999;28;20042;-68
2022/09/20 11:24:10;;;;;;;12.98;1.92;;;;;;;14.60;82.80;102234.94;5094937;28;20099;-69
2022/09/20 11:26:44;;;;;;;6.68;1.60;;;;;;;14.61;85.80;102237.50;5094834;28;20027;-69
2022/09/20 11:29:27;;;;;;;8.23;1.67;;;;;;;14.49;80.13;102239.19;5093251;28;20024;-69
2022/09/20 11:31:59;;;;;;;6.03;1.25;;;;;;;14.39;77.34;102238.81;5091664;28;20363;-69
2022/09/20 11:34:32;;;;;;;6.57;1.60;;;;;;;14.33;77.92;102235.09;5079209;28;20306;-69
2022/09/20 11:37:01;;;;;;;5.95;1.38;;;;;;;14.32;76.83;102242.41;5091048;28;20105;-69
2022/09/20 11:39:34;;;;;;;8.82;1.77;;;;;;;14.26;79.70;102245.19;5084558;28;20058;-68
2022/09/20 11:42:02;;;;;;;8.00;1.65;;;;;;;14.25;76.91;102244.34;5089937;28;20466;-71
2022/09/20 11:44:27;;;;;;;7.00;1.20;;;;;;;14.22;75.62;102258.41;5093029;28;20020;-71
2022/09/20 11:47:04;;;;;;;6.40;1.52;;;;;;;14.18;79.42;102252.53;5094536;28;20035;-71
2022/09/20 11:49:34;;;;;;;6.40;1.30;;;;;;;14.17;81.32;102258.19;5091562;28;20028;-71
2022/09/20 11:52:29;;;;;;;6.87;1.20;;;;;;;14.17;79.52;102252.75;5094285;28;20034;-71
2022/09/20 11:54:54;;;;;;;2.33;1.00;;;;;;;14.20;76.19;102255.03;5087007;28;20024;-72
2022/09/20 11:57:21;;;;;;;6.07;1.33;;;;;;;14.23;78.95;102260.06;5076749;28;20380;-71
2022/09/20 11:59:57;;;;;;;7.53;1.30;;;;;;;14.28;79.92;102257.53;5072286;28;20032;-72
2022/09/20 12:02:26;;;;;;;7.25;1.50;;;;;;;14.29;76.40;102256.47;5071165;28;20020;-72
2022/09/20 12:04:57;;;;;;;4.57;1.23;;;;;;;14.30;76.54;102266.31;5074225;28;20404;-73
2022/09/20 12:07:30;;;;;;;4.80;1.27;;;;;;;14.34;80.34;102267.56;5073729;28;20070;-73
2022/09/20 12:09:59;;;;;;;6.70;1.40;;;;;;;14.34;79.91;102264.84;5073811;28;20020;-74